createdAt,value
2018-09-15T00:02:02.203Z,6.33
2018-09-15T00:04:31.418Z,6.57
2018-09-15T00:07:00.643Z,6.42
2018-09-15T00:09:29.863Z,6.93
2018-09-15T00:11:59.100Z,6.40
2018-09-15T00:14:28.343Z,7.07
2018-09-15T00:16:57.571Z,6.63
2018-09-15T00:19:26.824Z,6.63
2018-09-15T00:21:56.036Z,6.27
2018-09-15T00:24:25.267Z,5.97
2018-09-15T00:26:54.499Z,5.37
2018-09-15T00:29:23.739Z,4.97
2018-09-15T00:31:53.017Z,5.77
2018-09-15T00:34:22.267Z,4.73
2018-09-15T00:36:51.503Z,5.90
2018-09-15T00:39:20.748Z,5.93
2018-09-15T00:41:50.012Z,5.73
2018-09-15T00:44:19.227Z,5.87
2018-09-15T00:46:48.443Z,5.83
2018-09-15T00:49:17.678Z,5.93
2018-09-15T00:51:46.893Z,6.27
2018-09-15T00:54:16.135Z,6.30
2018-09-15T00:56:45.371Z,6.80
2018-09-15T00:59:14.595Z,6.73
2018-09-15T01:01:43.831Z,6.13
2018-09-15T01:04:13.043Z,5.63
2018-09-15T01:06:42.290Z,5.37
2018-09-15T01:09:11.510Z,5.93
2018-09-15T01:11:40.800Z,6.33
2018-09-15T01:14:10.152Z,6.17
2018-09-15T01:16:39.307Z,6.47
2018-09-15T01:19:08.665Z,6.57
2018-09-15T01:21:37.937Z,6.00
2018-09-15T01:24:07.850Z,5.97
2018-09-15T01:26:37.140Z,6.87
2018-09-15T01:29:06.352Z,7.03
2018-09-15T01:31:35.590Z,7.47
2018-09-15T01:34:04.814Z,7.07
2018-09-15T01:36:34.036Z,7.70
2018-09-15T01:39:03.550Z,6.40
2018-09-15T01:41:32.779Z,6.07
2018-09-15T01:44:01.997Z,6.13
2018-09-15T01:46:32.735Z,6.00
2018-09-15T01:49:01.963Z,5.73
2018-09-15T01:51:31.169Z,6.00
2018-09-15T01:54:00.407Z,6.30
2018-09-15T01:56:29.620Z,6.33
2018-09-15T01:58:58.853Z,6.83
2018-09-15T02:01:28.090Z,6.57
2018-09-15T02:03:57.319Z,6.50
2018-09-15T02:06:26.542Z,6.37
2018-09-15T02:08:55.765Z,5.60
2018-09-15T02:11:25.003Z,5.30
2018-09-15T02:13:54.221Z,4.93
2018-09-15T02:16:23.451Z,5.17
2018-09-15T02:18:52.666Z,5.27
2018-09-15T02:21:21.903Z,5.60
2018-09-15T02:23:51.130Z,6.47
2018-09-15T02:26:20.342Z,6.30
2018-09-15T02:28:49.586Z,5.57
2018-09-15T02:31:18.790Z,5.73
2018-09-15T02:33:48.120Z,5.30
2018-09-15T02:36:17.602Z,5.03
2018-09-15T02:38:46.847Z,5.70
2018-09-15T02:41:16.507Z,5.23
2018-09-15T02:43:46.206Z,6.10
2018-09-15T02:46:15.859Z,6.70
2018-09-15T02:48:45.181Z,6.97
2018-09-15T02:51:14.534Z,7.40
2018-09-15T02:53:43.807Z,7.10
2018-09-15T02:56:13.034Z,6.90
2018-09-15T02:58:42.259Z,6.40
2018-09-15T03:01:11.489Z,6.73
2018-09-15T03:03:40.717Z,6.50
2018-09-15T03:06:09.946Z,6.77
2018-09-15T03:08:39.168Z,6.10
2018-09-15T03:11:08.415Z,5.63
2018-09-15T03:13:37.675Z,5.90
2018-09-15T03:16:06.913Z,5.83
2018-09-15T03:18:36.114Z,5.83
2018-09-15T03:21:05.542Z,5.70
2018-09-15T03:23:36.011Z,5.60
2018-09-15T03:26:05.267Z,5.03
2018-09-15T03:28:34.475Z,5.07
2018-09-15T03:31:03.701Z,5.30
2018-09-15T03:33:32.947Z,5.53
2018-09-15T03:36:02.190Z,5.77
2018-09-15T03:38:31.438Z,6.00
2018-09-15T03:41:00.685Z,6.37
2018-09-15T03:43:29.939Z,6.67
2018-09-15T03:45:59.154Z,6.77
2018-09-15T03:48:28.399Z,6.53
2018-09-15T03:50:57.610Z,6.33
2018-09-15T03:53:26.928Z,6.63
2018-09-15T03:55:56.146Z,6.50
2018-09-15T03:58:25.398Z,7.07
2018-09-15T04:00:54.616Z,6.80
2018-09-15T04:03:24.160Z,5.93
2018-09-15T04:05:53.398Z,6.40
2018-09-15T04:08:22.619Z,6.00
2018-09-15T04:10:51.856Z,5.10
2018-09-15T04:13:21.082Z,4.80
2018-09-15T04:15:50.318Z,5.07
2018-09-15T04:21:02.999Z,5.20
2018-09-15T04:23:32.215Z,5.12
2018-09-15T04:26:01.451Z,5.13
2018-09-15T04:28:30.748Z,5.10
2018-09-15T04:30:59.922Z,5.10
2018-09-15T04:33:29.153Z,4.77
2018-09-15T04:35:58.359Z,4.30
2018-09-15T04:38:27.606Z,4.60
2018-09-15T04:40:56.826Z,4.83
2018-09-15T04:43:26.055Z,4.90
2018-09-15T04:45:55.298Z,4.87
2018-09-15T04:48:24.517Z,5.13
2018-09-15T04:50:53.757Z,4.93
2018-09-15T04:53:22.973Z,4.73
2018-09-15T04:55:52.208Z,4.83
2018-09-15T04:58:21.439Z,4.90
2018-09-15T05:00:50.682Z,4.50
2018-09-15T05:03:19.893Z,5.10
2018-09-15T05:08:32.675Z,4.90
2018-09-15T05:11:02.194Z,5.62
2018-09-15T05:13:31.590Z,5.60
2018-09-15T05:16:00.842Z,5.87
2018-09-15T05:18:30.083Z,6.17
2018-09-15T05:20:59.308Z,6.20
2018-09-15T05:23:28.538Z,6.30
2018-09-15T05:26:04.007Z,6.00
2018-09-15T05:28:33.239Z,5.60
2018-09-15T05:31:02.462Z,6.20
2018-09-15T05:33:31.687Z,5.73
2018-09-15T05:36:00.943Z,5.80
2018-09-15T05:38:30.187Z,6.07
2018-09-15T05:40:59.390Z,6.13
2018-09-15T05:43:28.627Z,5.80
2018-09-15T05:45:57.841Z,5.90
2018-09-15T05:48:27.157Z,6.00
2018-09-15T05:50:56.404Z,5.87
2018-09-15T05:53:25.647Z,5.77
2018-09-15T05:55:54.888Z,6.40
2018-09-15T05:58:24.090Z,5.90
2018-09-15T06:00:53.683Z,5.40
2018-09-15T06:03:23.042Z,4.83
2018-09-15T06:05:52.275Z,4.20
2018-09-15T06:08:21.575Z,4.20
2018-09-15T06:10:50.810Z,4.50
2018-09-15T06:13:20.055Z,4.13
2018-09-15T06:15:49.276Z,4.40
2018-09-15T06:18:18.515Z,4.77
2018-09-15T06:20:47.754Z,5.00
2018-09-15T06:23:16.987Z,4.67
2018-09-15T06:25:46.201Z,5.10
2018-09-15T06:28:15.429Z,5.67
2018-09-15T06:30:44.654Z,5.53
2018-09-15T06:33:13.887Z,6.00
2018-09-15T06:35:43.118Z,6.33
2018-09-15T06:38:12.355Z,6.67
2018-09-15T06:40:41.615Z,7.60
2018-09-15T06:43:10.851Z,8.00
2018-09-15T06:45:40.185Z,8.98
2018-09-15T06:48:09.302Z,8.47
2018-09-15T06:50:38.538Z,10.53
2018-09-15T06:53:07.776Z,12.73
2018-09-15T06:55:37.028Z,11.43
2018-09-15T06:58:06.266Z,13.58
2018-09-15T07:00:35.515Z,15.80
2018-09-15T07:03:05.006Z,17.37
2018-09-15T07:05:34.254Z,20.10
2018-09-15T07:08:03.483Z,21.40
2018-09-15T07:10:32.705Z,23.38
2018-09-15T07:13:01.983Z,23.30
2018-09-15T07:15:31.190Z,22.97
2018-09-15T07:18:00.442Z,25.17
2018-09-15T07:20:29.867Z,24.77
2018-09-15T07:22:59.099Z,27.20
2018-09-15T07:25:28.321Z,22.67
2018-09-15T07:27:57.561Z,26.07
2018-09-15T07:30:26.810Z,20.23
2018-09-15T07:32:56.208Z,18.70
2018-09-15T07:35:25.606Z,24.40
2018-09-15T07:37:56.070Z,26.60
2018-09-15T07:40:25.307Z,28.77
2018-09-15T07:42:54.563Z,27.10
2018-09-15T07:45:23.795Z,27.10
2018-09-15T07:47:53.045Z,26.60
2018-09-15T07:50:22.285Z,26.70
2018-09-15T07:52:51.515Z,27.23
2018-09-15T07:55:20.749Z,26.97
2018-09-15T07:57:50.243Z,25.70
2018-09-15T08:00:19.345Z,25.80
2018-09-15T08:02:48.611Z,25.67
2018-09-15T08:05:17.799Z,25.93
2018-09-15T08:07:47.027Z,26.83
2018-09-15T08:10:16.278Z,25.03
2018-09-15T08:12:45.542Z,24.67
2018-09-15T08:15:14.850Z,23.70
2018-09-15T08:17:44.078Z,23.97
2018-09-15T08:20:13.307Z,24.40
2018-09-15T08:22:42.646Z,22.93
2018-09-15T08:25:11.854Z,24.30
2018-09-15T08:27:41.109Z,23.33
2018-09-15T08:30:10.318Z,24.50
2018-09-15T08:32:39.546Z,24.23
2018-09-15T08:35:08.824Z,24.23
2018-09-15T08:37:38.089Z,23.80
2018-09-15T08:40:07.392Z,23.57
2018-09-15T08:42:36.891Z,23.77
2018-09-15T08:45:06.134Z,25.67
2018-09-15T08:47:35.362Z,25.43
2018-09-15T08:50:04.751Z,24.60
2018-09-15T08:52:33.983Z,24.97
2018-09-15T08:55:03.429Z,23.43
2018-09-15T08:57:32.663Z,23.25
2018-09-15T09:00:01.937Z,22.50
2018-09-15T09:02:31.169Z,22.07
2018-09-15T09:05:00.399Z,23.50
2018-09-15T09:07:29.615Z,22.97
2018-09-15T09:09:58.914Z,23.27
2018-09-15T09:12:28.699Z,24.13
2018-09-15T09:14:57.978Z,22.67
2018-09-15T09:17:27.215Z,23.73
2018-09-15T09:19:56.574Z,23.07
2018-09-15T09:22:25.754Z,21.52
2018-09-15T09:24:54.986Z,21.93
2018-09-15T09:27:24.238Z,22.93
2018-09-15T09:29:53.482Z,21.43
2018-09-15T09:32:22.776Z,22.60
2018-09-15T09:34:51.997Z,22.07
2018-09-15T09:37:21.223Z,20.65
2018-09-15T09:39:50.503Z,21.30
2018-09-15T09:42:19.734Z,20.20
2018-09-15T09:44:48.967Z,20.17
2018-09-15T09:47:18.251Z,20.03
2018-09-15T09:49:48.847Z,19.77
2018-09-15T09:52:18.259Z,19.98
2018-09-15T09:54:47.481Z,18.97
2018-09-15T09:57:16.722Z,21.33
2018-09-15T09:59:45.975Z,23.02
2018-09-15T10:02:19.006Z,21.07
2018-09-15T10:04:48.269Z,19.48
2018-09-15T10:07:17.557Z,18.77
2018-09-15T10:09:46.887Z,19.37
2018-09-15T10:12:16.174Z,20.43
2018-09-15T10:14:45.571Z,18.92
2018-09-15T10:17:14.838Z,19.50
2018-09-15T10:19:44.075Z,19.67
2018-09-15T10:22:13.330Z,19.17
2018-09-15T10:24:42.557Z,18.77
2018-09-15T10:27:11.814Z,19.95
2018-09-15T10:29:41.032Z,19.57
2018-09-15T10:32:10.364Z,21.15
2018-09-15T10:34:39.508Z,19.33
2018-09-15T10:37:08.849Z,19.23
2018-09-15T10:39:38.967Z,18.10
2018-09-15T10:42:08.454Z,19.45
2018-09-15T10:44:37.675Z,19.77
2018-09-15T10:47:06.924Z,19.93
2018-09-15T10:49:36.165Z,20.17
2018-09-15T10:52:05.426Z,20.52
2018-09-15T10:54:34.659Z,19.70
2018-09-15T10:57:03.900Z,21.17
2018-09-15T10:59:33.115Z,19.67
2018-09-15T11:02:02.540Z,19.87
2018-09-15T11:04:31.783Z,21.12
2018-09-15T11:07:01.001Z,19.02
2018-09-15T11:09:30.238Z,17.83
2018-09-15T11:11:59.471Z,18.75
2018-09-15T11:14:28.719Z,18.52
2018-09-15T11:16:57.963Z,17.77
2018-09-15T11:19:27.247Z,17.75
2018-09-15T11:21:56.477Z,20.97
2018-09-15T11:24:25.731Z,19.17
2018-09-15T11:26:55.111Z,18.12
2018-09-15T11:29:24.334Z,17.02
2018-09-15T11:31:53.608Z,16.37
2018-09-15T11:34:22.875Z,16.10
2018-09-15T11:36:52.170Z,15.60
2018-09-15T11:39:21.407Z,17.10
2018-09-15T11:41:50.645Z,15.97
2018-09-15T11:44:19.878Z,17.10
2018-09-15T11:46:49.122Z,15.87
2018-09-15T11:49:18.354Z,16.60
2018-09-15T11:51:47.594Z,16.65
2018-09-15T11:54:16.834Z,19.42
2018-09-15T11:56:46.083Z,17.53
2018-09-15T11:59:15.330Z,18.03
2018-09-15T12:01:44.603Z,17.62
2018-09-15T12:04:13.846Z,15.90
2018-09-15T12:06:43.085Z,16.20
2018-09-15T12:09:12.308Z,18.07
2018-09-15T12:11:41.539Z,15.27
2018-09-15T12:14:10.812Z,15.32
2018-09-15T12:16:40.008Z,15.13
2018-09-15T12:19:09.246Z,15.23
2018-09-15T12:21:38.689Z,12.97
2018-09-15T12:24:07.860Z,13.40
2018-09-15T12:26:37.103Z,12.98
2018-09-15T12:29:06.386Z,12.33
2018-09-15T12:31:35.659Z,13.00
2018-09-15T12:34:04.951Z,12.80
2018-09-15T12:36:34.205Z,12.18
2018-09-15T12:39:03.466Z,11.20
2018-09-15T12:41:32.715Z,12.73
2018-09-15T12:44:01.973Z,12.23
2018-09-15T12:46:31.210Z,11.75
2018-09-15T12:49:00.823Z,12.05
2018-09-15T12:51:30.050Z,10.95
2018-09-15T12:53:59.291Z,12.00
2018-09-15T12:56:28.558Z,13.53
2018-09-15T12:58:57.781Z,12.60
2018-09-15T13:01:27.051Z,13.08
2018-09-15T13:03:56.286Z,13.48
2018-09-15T13:06:25.555Z,12.00
2018-09-15T13:08:54.734Z,13.20
2018-09-15T13:11:23.971Z,11.13
2018-09-15T13:13:53.186Z,10.13
2018-09-15T13:16:22.452Z,9.63
2018-09-15T13:18:51.670Z,11.17
2018-09-15T13:21:20.960Z,12.30
2018-09-15T13:23:50.207Z,12.50
2018-09-15T13:26:20.658Z,12.28
2018-09-15T13:28:49.892Z,10.68
2018-09-15T13:31:19.117Z,11.87
2018-09-15T13:33:48.347Z,11.48
2018-09-15T13:36:17.562Z,11.60
2018-09-15T13:38:46.800Z,11.97
2018-09-15T13:41:16.039Z,10.98
2018-09-15T13:43:45.283Z,10.67
2018-09-15T13:46:14.495Z,10.77
2018-09-15T13:48:43.784Z,11.25
2018-09-15T13:51:13.006Z,11.65
2018-09-15T13:53:42.276Z,11.18
2018-09-15T13:56:11.532Z,12.07
2018-09-15T13:58:40.777Z,12.77
2018-09-15T14:01:10.149Z,11.65
2018-09-15T14:03:39.434Z,11.10
2018-09-15T14:06:08.661Z,10.05
2018-09-15T14:08:37.889Z,10.97
2018-09-15T14:11:07.187Z,11.40
2018-09-15T14:13:36.343Z,10.63
2018-09-15T14:16:05.587Z,10.90
2018-09-15T14:18:34.854Z,10.67
2018-09-15T14:21:04.131Z,10.20
2018-09-15T14:23:33.354Z,11.63
2018-09-15T14:26:02.599Z,10.32
2018-09-15T14:28:31.932Z,10.43
2018-09-15T14:31:01.092Z,10.20
2018-09-15T14:33:30.315Z,9.70
2018-09-15T14:35:59.555Z,9.93
2018-09-15T14:38:28.784Z,9.30
2018-09-15T14:40:58.017Z,9.25
2018-09-15T14:43:27.250Z,9.40
2018-09-15T14:45:56.470Z,7.87
2018-09-15T14:48:25.735Z,8.80
2018-09-15T14:50:54.941Z,8.68
2018-09-15T14:53:24.151Z,9.23
2018-09-15T14:55:53.362Z,8.67
2018-09-15T14:58:22.610Z,7.83
2018-09-15T15:00:51.842Z,7.53
2018-09-15T15:03:21.071Z,7.22
2018-09-15T15:05:50.300Z,8.23
2018-09-15T15:08:19.514Z,7.57
2018-09-15T15:10:48.755Z,7.80
2018-09-15T15:13:18.001Z,8.00
2018-09-15T15:15:47.293Z,8.03
2018-09-15T15:18:16.463Z,9.20
2018-09-15T15:20:45.686Z,8.53
2018-09-15T15:23:14.944Z,8.70
2018-09-15T15:25:44.185Z,8.35
2018-09-15T15:28:13.391Z,8.95
2018-09-15T15:30:42.614Z,8.97
2018-09-15T15:33:11.870Z,9.30
2018-09-15T15:35:41.106Z,8.80
2018-09-15T15:38:10.334Z,9.13
2018-09-15T15:40:39.563Z,8.73
2018-09-15T15:43:08.799Z,8.77
2018-09-15T15:45:38.031Z,8.38
2018-09-15T15:48:07.266Z,8.78
2018-09-15T15:50:36.498Z,7.90
2018-09-15T15:53:05.714Z,8.60
2018-09-15T15:55:35.022Z,7.97
2018-09-15T15:58:04.179Z,8.30
2018-09-15T16:00:33.390Z,8.20
2018-09-15T16:03:02.606Z,8.13
2018-09-15T16:05:31.854Z,8.37
2018-09-15T16:08:01.114Z,9.03
2018-09-15T16:10:30.331Z,8.33
2018-09-15T16:12:59.579Z,7.85
2018-09-15T16:15:28.788Z,8.03
2018-09-15T16:17:58.022Z,7.57
2018-09-15T16:20:27.273Z,8.40
2018-09-15T16:22:56.535Z,7.90
2018-09-15T16:25:25.753Z,7.25
2018-09-15T16:27:54.974Z,7.03
2018-09-15T16:30:24.203Z,7.57
2018-09-15T16:32:53.439Z,6.93
2018-09-15T16:35:23.919Z,7.95
2018-09-15T16:37:53.162Z,7.50
2018-09-15T16:40:22.499Z,7.97
2018-09-15T16:42:51.762Z,8.93
2018-09-15T16:45:21.015Z,9.40
2018-09-15T16:47:50.233Z,8.80
2018-09-15T16:50:19.450Z,8.98
2018-09-15T16:52:48.685Z,8.60
2018-09-15T16:55:17.919Z,9.20
2018-09-15T16:57:47.152Z,8.48
2018-09-15T17:00:16.390Z,9.13
2018-09-15T17:02:45.614Z,8.13
2018-09-15T17:05:14.915Z,7.97
2018-09-15T17:07:44.207Z,7.73
2018-09-15T17:10:13.493Z,7.27
2018-09-15T17:12:42.695Z,8.03
2018-09-15T17:15:11.934Z,7.50
2018-09-15T17:17:41.165Z,7.03
2018-09-15T17:20:10.384Z,7.30
2018-09-15T17:22:39.639Z,7.10
2018-09-15T17:25:08.861Z,7.23
2018-09-15T17:27:38.102Z,7.80
2018-09-15T17:30:07.333Z,7.00
2018-09-15T17:32:36.611Z,7.33
2018-09-15T17:35:06.585Z,7.45
2018-09-15T17:37:35.794Z,7.10
2018-09-15T17:40:05.959Z,7.07
2018-09-15T17:42:35.191Z,7.50
2018-09-15T17:45:04.469Z,7.30
2018-09-15T17:47:34.715Z,7.97
2018-09-15T17:50:03.995Z,7.20
2018-09-15T17:52:33.224Z,7.37
2018-09-15T17:55:02.472Z,6.87
2018-09-15T17:57:31.657Z,7.20
2018-09-15T18:00:00.907Z,7.90
2018-09-15T18:02:30.154Z,7.53
2018-09-15T18:04:59.378Z,7.80
2018-09-15T18:07:28.619Z,7.30
2018-09-15T18:09:57.900Z,8.40
2018-09-15T18:12:27.115Z,8.10
2018-09-15T18:14:56.419Z,8.10
2018-09-15T18:17:25.627Z,8.57
2018-09-15T18:19:54.847Z,8.48
2018-09-15T18:22:24.086Z,8.37
2018-09-15T18:24:53.296Z,8.63
2018-09-15T18:27:22.534Z,9.17
2018-09-15T18:29:51.756Z,8.57
2018-09-15T18:32:20.991Z,8.57
2018-09-15T18:34:50.238Z,8.67
2018-09-15T18:37:19.497Z,9.13
2018-09-15T18:39:48.737Z,9.47
2018-09-15T18:42:17.977Z,9.20
2018-09-15T18:44:47.223Z,8.58
2018-09-15T18:47:16.455Z,8.77
2018-09-15T18:49:45.686Z,8.00
2018-09-15T18:52:14.910Z,7.97
2018-09-15T18:54:44.162Z,7.80
2018-09-15T18:57:13.419Z,7.13
2018-09-15T18:59:42.673Z,7.63
2018-09-15T19:02:11.895Z,7.30
2018-09-15T19:04:41.113Z,8.47
2018-09-15T19:07:10.341Z,8.20
2018-09-15T19:09:39.579Z,8.90
2018-09-15T19:12:08.813Z,8.37
2018-09-15T19:14:38.065Z,8.40
2018-09-15T19:17:07.348Z,8.57
2018-09-15T19:19:36.545Z,8.47
2018-09-15T19:22:05.842Z,7.07
2018-09-15T19:24:35.063Z,8.20
2018-09-15T19:27:04.314Z,8.57
2018-09-15T19:29:33.657Z,9.50
2018-09-15T19:32:02.873Z,10.00
2018-09-15T19:34:32.099Z,9.57
2018-09-15T19:37:01.343Z,9.67
2018-09-15T19:39:30.563Z,9.10
2018-09-15T19:41:59.803Z,9.40
2018-09-15T19:44:29.047Z,9.03
2018-09-15T19:46:58.275Z,9.07
2018-09-15T19:49:27.502Z,8.90
2018-09-15T19:51:56.762Z,9.57
2018-09-15T19:54:26.002Z,9.80
2018-09-15T19:56:55.238Z,10.13
2018-09-15T19:59:24.489Z,10.30
2018-09-15T20:01:53.724Z,10.67
2018-09-15T20:04:22.957Z,10.33
2018-09-15T20:06:52.187Z,9.00
2018-09-15T20:09:21.419Z,8.97
2018-09-15T20:11:50.667Z,8.93
2018-09-15T20:14:19.905Z,9.03
2018-09-15T20:16:47.593Z,8.83
2018-09-15T20:19:15.299Z,9.10
2018-09-15T20:21:42.989Z,9.40
2018-09-15T20:24:12.235Z,9.47
2018-09-15T20:26:41.466Z,10.10
2018-09-15T20:29:10.710Z,9.30
2018-09-15T20:31:39.934Z,10.87
2018-09-15T20:34:09.186Z,10.17
2018-09-15T20:36:38.414Z,10.53
2018-09-15T20:39:11.020Z,10.40
2018-09-15T20:41:40.340Z,10.20
2018-09-15T20:44:09.738Z,9.77
2018-09-15T20:46:38.978Z,9.27
2018-09-15T20:49:08.282Z,9.30
2018-09-15T20:51:37.475Z,9.37
2018-09-15T20:54:06.989Z,9.83
2018-09-15T20:56:36.223Z,11.37
2018-09-15T20:59:05.525Z,10.03
2018-09-15T21:01:34.779Z,9.10
2018-09-15T21:04:04.042Z,10.07
2018-09-15T21:06:33.271Z,9.97
2018-09-15T21:09:02.532Z,10.37
2018-09-15T21:11:31.752Z,10.37
2018-09-15T21:14:00.978Z,9.73
2018-09-15T21:16:30.195Z,9.60
2018-09-15T21:19:30.111Z,9.40
2018-09-15T21:21:59.339Z,9.80
2018-09-15T21:24:28.606Z,9.70
2018-09-15T21:26:57.843Z,9.88
2018-09-15T21:29:27.095Z,10.93
2018-09-15T21:31:56.623Z,10.73
2018-09-15T21:34:25.849Z,11.80
2018-09-15T21:36:55.086Z,10.20
2018-09-15T21:39:24.315Z,10.87
2018-09-15T21:41:53.566Z,9.93
2018-09-15T21:44:22.818Z,10.07
2018-09-15T21:46:52.052Z,10.90
2018-09-15T21:49:21.308Z,10.47
2018-09-15T21:51:50.523Z,10.03
2018-09-15T21:54:19.754Z,10.63
2018-09-15T21:56:49.031Z,11.43
2018-09-15T21:59:18.273Z,10.40
2018-09-15T22:01:47.496Z,11.00
2018-09-15T22:04:20.718Z,11.17
2018-09-15T22:06:51.674Z,10.03
2018-09-15T22:09:20.972Z,9.57
2018-09-15T22:11:50.187Z,9.40
2018-09-15T22:14:19.419Z,10.30
2018-09-15T22:16:48.672Z,9.57
2018-09-15T22:19:17.923Z,10.30
2018-09-15T22:21:47.147Z,9.83
2018-09-15T22:24:16.383Z,10.10
2018-09-15T22:26:45.647Z,10.30
2018-09-15T22:29:14.884Z,9.80
2018-09-15T22:31:44.097Z,10.13
2018-09-15T22:34:13.421Z,9.03
2018-09-15T22:36:42.575Z,9.97
2018-09-15T22:39:11.807Z,9.80
2018-09-15T22:41:41.039Z,10.30
2018-09-15T22:44:10.418Z,9.80
2018-09-15T22:46:39.653Z,9.67
2018-09-15T22:49:08.896Z,9.73
2018-09-15T22:51:38.123Z,9.70
2018-09-15T22:54:07.366Z,9.90
2018-09-15T22:56:36.607Z,10.10
2018-09-15T22:59:06.239Z,10.03
2018-09-15T23:01:35.495Z,10.57
2018-09-15T23:04:06.399Z,10.27
2018-09-15T23:06:35.627Z,9.67
2018-09-15T23:09:05.993Z,9.83
2018-09-15T23:11:35.218Z,9.80
2018-09-15T23:14:04.568Z,10.47
2018-09-15T23:16:33.773Z,9.63
2018-09-15T23:19:03.042Z,9.50
2018-09-15T23:21:32.470Z,9.90
2018-09-15T23:24:01.698Z,9.87
2018-09-15T23:26:30.931Z,9.23
2018-09-15T23:29:00.135Z,8.73
2018-09-15T23:31:29.375Z,10.13
2018-09-15T23:33:58.618Z,10.00
2018-09-15T23:36:29.091Z,9.63
2018-09-15T23:38:58.336Z,9.37
2018-09-15T23:41:27.574Z,10.13
2018-09-15T23:43:56.791Z,9.68
2018-09-15T23:46:26.031Z,10.17
2018-09-15T23:48:55.231Z,10.07
2018-09-15T23:51:24.490Z,10.17
2018-09-15T23:53:53.726Z,10.00
2018-09-15T23:56:22.967Z,10.07
2018-09-15T23:58:52.218Z,9.20
